createdAt,value
2018-05-07T00:01:17.011Z,1.90
2018-05-07T00:02:52.189Z,1.73
2018-05-07T00:04:28.086Z,1.80
2018-05-07T00:06:07.631Z,1.50
2018-05-07T00:07:42.752Z,1.80
2018-05-07T00:09:17.826Z,1.87
2018-05-07T00:10:52.964Z,1.87
2018-05-07T00:12:28.815Z,1.90
2018-05-07T00:14:04.018Z,2.07
2018-05-07T00:15:39.095Z,1.70
2018-05-07T00:17:14.202Z,1.60
2018-05-07T00:18:49.353Z,1.80
2018-05-07T00:20:25.228Z,2.00
2018-05-07T00:22:00.341Z,2.10
2018-05-07T00:23:36.578Z,2.10
2018-05-07T00:25:11.701Z,2.27
2018-05-07T00:26:46.820Z,2.50
2018-05-07T00:28:21.955Z,2.87
2018-05-07T00:29:57.092Z,2.40
2018-05-07T00:31:33.967Z,2.13
2018-05-07T00:33:09.275Z,2.27
2018-05-07T00:34:44.355Z,1.90
2018-05-07T00:36:19.456Z,2.00
2018-05-07T00:37:55.337Z,1.90
2018-05-07T00:39:30.439Z,1.90
2018-05-07T00:41:05.554Z,1.90
2018-05-07T00:42:40.643Z,1.70
2018-05-07T00:44:16.536Z,1.87
2018-05-07T00:45:51.635Z,1.70
2018-05-07T00:47:30.834Z,1.70
2018-05-07T00:49:05.941Z,1.50
2018-05-07T00:50:41.052Z,1.70
2018-05-07T00:52:16.147Z,1.80
2018-05-07T00:53:51.783Z,1.50
2018-05-07T00:55:26.928Z,1.60
2018-05-07T00:57:02.810Z,1.60
2018-05-07T00:58:43.770Z,1.60
2018-05-07T01:00:18.903Z,1.60
2018-05-07T01:01:54.042Z,1.70
2018-05-07T01:03:29.091Z,1.50
2018-05-07T01:05:04.182Z,1.50
2018-05-07T01:06:40.116Z,1.87
2018-05-07T01:08:15.187Z,1.50
2018-05-07T01:09:50.287Z,1.77
2018-05-07T01:11:25.355Z,1.80
2018-05-07T01:13:00.508Z,1.77
2018-05-07T01:14:35.591Z,1.97
2018-05-07T01:16:10.665Z,1.70
2018-05-07T01:17:45.771Z,1.70
2018-05-07T01:19:21.109Z,1.60
2018-05-07T01:20:57.135Z,1.87
2018-05-07T01:22:32.232Z,1.63
2018-05-07T01:24:07.355Z,1.67
2018-05-07T01:25:43.244Z,1.70
2018-05-07T01:27:19.113Z,1.73
2018-05-07T01:28:54.958Z,1.70
2018-05-07T01:30:30.024Z,2.00
2018-05-07T01:32:05.913Z,1.70
2018-05-07T01:33:40.992Z,1.27
2018-05-07T01:35:16.082Z,1.60
2018-05-07T01:36:51.167Z,1.73
2018-05-07T01:38:27.002Z,1.97
2018-05-07T01:40:02.090Z,1.90
2018-05-07T01:41:37.153Z,1.90
2018-05-07T01:43:12.332Z,1.93
2018-05-07T01:44:47.397Z,1.60
2018-05-07T01:46:29.258Z,2.00
2018-05-07T01:48:04.354Z,2.00
2018-05-07T01:49:39.514Z,1.80
2018-05-07T01:51:14.623Z,1.80
2018-05-07T01:52:50.648Z,1.90
2018-05-07T01:54:26.498Z,2.30
2018-05-07T01:56:01.592Z,2.43
2018-05-07T01:57:38.321Z,2.20
2018-05-07T01:59:14.155Z,2.20
2018-05-07T02:00:49.304Z,2.10
2018-05-07T02:02:24.380Z,2.30
2018-05-07T02:03:59.466Z,2.10
2018-05-07T02:05:34.511Z,2.37
2018-05-07T02:07:09.571Z,2.30
2018-05-07T02:08:44.649Z,2.30
2018-05-07T02:10:19.799Z,2.00
2018-05-07T02:11:54.891Z,2.23
2018-05-07T02:13:30.023Z,2.10
2018-05-07T02:15:05.120Z,2.00
2018-05-07T02:16:40.186Z,1.90
2018-05-07T02:18:15.617Z,2.33
2018-05-07T02:19:51.041Z,2.20
2018-05-07T02:21:26.272Z,2.03
2018-05-07T02:23:02.094Z,2.00
2018-05-07T02:24:37.208Z,1.80
2018-05-07T02:26:12.291Z,1.77
2018-05-07T02:27:48.144Z,1.83
2018-05-07T02:29:23.218Z,1.90
2018-05-07T02:30:58.335Z,1.80
2018-05-07T02:32:33.457Z,1.80
2018-05-07T02:34:08.634Z,1.80
2018-05-07T02:35:43.797Z,1.80
2018-05-07T02:37:18.896Z,1.80
2018-05-07T02:38:54.014Z,2.20
2018-05-07T02:40:29.085Z,1.83
2018-05-07T02:42:04.209Z,1.70
2018-05-07T02:43:39.314Z,1.70
2018-05-07T02:45:14.412Z,1.80
2018-05-07T02:46:49.564Z,1.93
2018-05-07T02:48:24.696Z,2.23
2018-05-07T02:49:59.802Z,2.20
2018-05-07T02:51:34.940Z,2.30
2018-05-07T02:53:10.000Z,2.30
2018-05-07T02:54:45.177Z,2.20
2018-05-07T02:56:20.250Z,2.27
2018-05-07T02:57:55.342Z,2.30
2018-05-07T02:59:30.456Z,2.03
2018-05-07T03:01:06.311Z,1.90
2018-05-07T03:02:41.383Z,1.90
2018-05-07T03:04:16.488Z,2.20
2018-05-07T03:05:51.582Z,1.93
2018-05-07T03:07:26.698Z,2.17
2018-05-07T03:09:01.801Z,1.80
2018-05-07T03:10:36.882Z,2.30
2018-05-07T03:12:12.078Z,2.20
2018-05-07T03:13:47.091Z,2.50
2018-05-07T03:15:22.211Z,1.93
2018-05-07T03:16:57.329Z,2.10
2018-05-07T03:18:32.391Z,1.80
2018-05-07T03:20:07.784Z,1.90
2018-05-07T03:21:43.516Z,2.07
2018-05-07T03:23:18.623Z,2.07
2018-05-07T03:24:53.676Z,2.10
2018-05-07T03:26:28.808Z,2.60
2018-05-07T03:28:05.011Z,2.40
2018-05-07T03:29:40.100Z,2.43
2018-05-07T03:31:15.217Z,2.47
2018-05-07T03:32:50.380Z,2.00
2018-05-07T03:34:25.527Z,2.00
2018-05-07T03:36:01.443Z,2.10
2018-05-07T03:37:37.049Z,2.10
2018-05-07T03:39:12.123Z,2.70
2018-05-07T03:40:47.896Z,2.33
2018-05-07T03:42:23.049Z,2.30
2018-05-07T03:43:58.168Z,2.30
2018-05-07T03:45:34.045Z,1.90
2018-05-07T03:47:09.096Z,2.10
2018-05-07T03:48:44.217Z,2.30
2018-05-07T03:50:19.376Z,2.00
2018-05-07T03:51:54.481Z,2.33
2018-05-07T03:53:29.604Z,2.13
2018-05-07T03:55:04.716Z,2.23
2018-05-07T03:56:48.455Z,2.00
2018-05-07T03:58:23.622Z,2.00
2018-05-07T03:59:59.478Z,2.20
2018-05-07T04:01:34.634Z,2.20
2018-05-07T04:03:09.753Z,2.00
2018-05-07T04:04:47.319Z,2.13
2018-05-07T04:06:22.462Z,2.20
2018-05-07T04:07:57.588Z,2.13
2018-05-07T04:09:33.615Z,2.20
2018-05-07T04:11:09.807Z,2.47
2018-05-07T04:12:44.934Z,2.10
2018-05-07T04:14:20.925Z,2.03
2018-05-07T04:15:56.226Z,2.60
2018-05-07T04:17:51.663Z,2.23
2018-05-07T04:19:44.466Z,2.10
2018-05-07T04:21:20.346Z,2.50
2018-05-07T04:23:13.128Z,2.30
2018-05-07T04:24:48.189Z,2.57
2018-05-07T04:26:23.291Z,2.50
2018-05-07T04:27:58.406Z,2.40
2018-05-07T04:29:33.538Z,2.17
2018-05-07T04:31:09.460Z,1.97
2018-05-07T04:32:45.301Z,2.00
2018-05-07T04:34:27.726Z,2.20
2018-05-07T04:36:03.531Z,2.33
2018-05-07T04:37:38.622Z,1.90
2018-05-07T04:39:13.774Z,2.10
2018-05-07T04:40:48.866Z,2.10
2018-05-07T04:42:24.035Z,2.40
2018-05-07T04:43:59.712Z,2.60
2018-05-07T04:45:36.003Z,2.40
2018-05-07T04:47:32.812Z,2.30
2018-05-07T04:49:08.866Z,2.00
2018-05-07T04:50:44.385Z,2.40
2018-05-07T04:52:19.525Z,2.43
2018-05-07T04:53:54.684Z,2.40
2018-05-07T04:55:29.852Z,2.40
2018-05-07T04:57:05.744Z,2.57
2018-05-07T04:58:43.236Z,2.57
2018-05-07T05:00:19.599Z,2.40
2018-05-07T05:01:54.706Z,2.30
2018-05-07T05:03:29.884Z,2.40
2018-05-07T05:05:05.026Z,2.80
2018-05-07T05:06:40.119Z,2.67
2018-05-07T05:08:15.922Z,2.70
2018-05-07T05:09:52.502Z,2.87
2018-05-07T05:11:27.709Z,2.77
2018-05-07T05:13:04.504Z,2.73
2018-05-07T05:15:05.608Z,2.90
2018-05-07T05:16:40.751Z,3.17
2018-05-07T05:18:16.920Z,3.37
2018-05-07T05:19:55.196Z,3.33
2018-05-07T05:21:30.991Z,3.00
2018-05-07T05:23:06.246Z,3.43
2018-05-07T05:24:42.027Z,3.50
2018-05-07T05:26:17.278Z,3.40
2018-05-07T05:27:53.165Z,3.40
2018-05-07T05:29:30.656Z,3.97
2018-05-07T05:31:05.781Z,3.87
2018-05-07T05:32:40.882Z,3.43
2018-05-07T05:34:15.984Z,3.80
2018-05-07T05:35:51.827Z,3.50
2018-05-07T05:37:28.246Z,3.70
2018-05-07T05:39:03.364Z,3.97
2018-05-07T05:40:39.263Z,4.13
2018-05-07T05:42:14.379Z,4.30
2018-05-07T05:43:50.365Z,3.87
2018-05-07T05:45:38.986Z,5.07
2018-05-07T05:47:14.078Z,4.37
2018-05-07T05:48:49.194Z,4.10
2018-05-07T05:50:24.272Z,4.30
2018-05-07T05:52:00.155Z,3.70
2018-05-07T05:53:35.245Z,3.87
2018-05-07T05:55:10.408Z,3.90
2018-05-07T05:56:45.534Z,4.03
2018-05-07T05:58:20.673Z,4.20
2018-05-07T05:59:55.855Z,4.20
2018-05-07T06:01:31.035Z,4.00
2018-05-07T06:03:06.133Z,3.93
2018-05-07T06:04:41.286Z,4.33
2018-05-07T06:06:16.401Z,3.90
2018-05-07T06:07:52.274Z,3.77
2018-05-07T06:09:28.132Z,3.60
2018-05-07T06:11:03.344Z,3.87
2018-05-07T06:12:38.900Z,4.00
2018-05-07T06:14:15.791Z,4.10
2018-05-07T06:15:50.906Z,4.20
2018-05-07T06:17:26.776Z,3.87
2018-05-07T06:19:02.640Z,4.03
2018-05-07T06:20:43.409Z,3.83
2018-05-07T06:22:18.579Z,3.97
2018-05-07T06:23:53.670Z,4.20
2018-05-07T06:25:28.770Z,3.93
2018-05-07T06:27:04.614Z,4.53
2018-05-07T06:28:40.105Z,4.07
2018-05-07T06:30:15.176Z,3.80
2018-05-07T06:31:51.031Z,4.17
2018-05-07T06:33:26.153Z,4.30
2018-05-07T06:35:01.255Z,4.00
2018-05-07T06:36:36.357Z,4.20
2018-05-07T06:38:11.493Z,4.40
2018-05-07T06:39:46.624Z,3.90
2018-05-07T06:41:21.777Z,3.97
2018-05-07T06:42:56.966Z,3.77
2018-05-07T06:44:32.832Z,4.10
2018-05-07T06:46:07.943Z,4.40
2018-05-07T06:47:43.049Z,4.27
2018-05-07T06:49:18.127Z,3.60
2018-05-07T06:50:53.246Z,4.03
2018-05-07T06:52:28.328Z,3.80
2018-05-07T06:54:03.438Z,4.07
2018-05-07T06:55:38.581Z,4.50
2018-05-07T06:57:13.639Z,4.37
2018-05-07T06:58:48.784Z,4.80
2018-05-07T07:00:24.618Z,4.40
2018-05-07T07:01:59.759Z,4.50
2018-05-07T07:03:34.854Z,5.20
2018-05-07T07:05:09.952Z,4.77
2018-05-07T07:06:47.642Z,4.13
2018-05-07T07:08:22.784Z,4.10
2018-05-07T07:09:57.858Z,4.10
2018-05-07T07:11:32.916Z,3.83
2018-05-07T07:13:08.053Z,4.30
2018-05-07T07:14:43.931Z,4.00
2018-05-07T07:16:19.127Z,4.40
2018-05-07T07:17:54.343Z,4.10
2018-05-07T07:19:29.497Z,3.70
2018-05-07T07:21:04.695Z,3.90
2018-05-07T07:22:39.784Z,4.13
2018-05-07T07:24:14.889Z,3.70
2018-05-07T07:25:50.031Z,3.83
2018-05-07T07:27:25.897Z,3.57
2018-05-07T07:29:01.057Z,3.40
2018-05-07T07:30:36.147Z,3.70
2018-05-07T07:32:14.629Z,3.63
2018-05-07T07:33:50.542Z,3.60
2018-05-07T07:35:25.621Z,3.30
2018-05-07T07:37:01.306Z,3.10
2018-05-07T07:38:37.301Z,3.07
2018-05-07T07:40:12.411Z,2.80
2018-05-07T07:41:48.239Z,2.50
2018-05-07T07:43:23.390Z,3.00
2018-05-07T07:44:58.533Z,2.50
2018-05-07T07:46:33.645Z,2.77
2018-05-07T07:48:08.798Z,2.40
2018-05-07T07:49:43.927Z,2.60
2018-05-07T07:51:19.033Z,2.87
2018-05-07T07:52:54.104Z,2.63
2018-05-07T07:54:29.224Z,2.53
2018-05-07T07:56:04.291Z,2.40
2018-05-07T07:57:46.415Z,2.30
2018-05-07T07:59:21.562Z,2.60
2018-05-07T08:00:56.691Z,2.87
2018-05-07T08:02:31.804Z,2.60
2018-05-07T08:04:06.939Z,2.80
2018-05-07T08:05:41.995Z,2.80
2018-05-07T08:07:17.860Z,3.10
2018-05-07T08:08:52.961Z,2.87
2018-05-07T08:10:28.082Z,2.77
2018-05-07T08:12:03.226Z,2.63
2018-05-07T08:13:38.296Z,2.47
2018-05-07T08:15:13.375Z,2.60
2018-05-07T08:16:48.503Z,2.50
2018-05-07T08:18:23.599Z,2.30
2018-05-07T08:19:58.701Z,3.20
2018-05-07T08:21:33.842Z,3.00
2018-05-07T08:23:10.467Z,2.63
2018-05-07T08:24:45.559Z,2.83
2018-05-07T08:26:21.534Z,2.90
2018-05-07T08:27:57.691Z,2.83
2018-05-07T08:29:32.758Z,2.80
2018-05-07T08:31:07.920Z,2.80
2018-05-07T08:32:43.065Z,3.00
2018-05-07T08:34:18.191Z,3.00
2018-05-07T08:35:53.307Z,2.90
2018-05-07T08:37:29.156Z,2.70
2018-05-07T08:39:04.285Z,3.00
2018-05-07T08:40:39.515Z,2.67
2018-05-07T08:42:14.711Z,2.97
2018-05-07T08:43:50.522Z,3.10
2018-05-07T08:45:25.630Z,3.07
2018-05-07T08:47:01.480Z,3.00
2018-05-07T08:48:36.596Z,3.20
2018-05-07T08:50:12.418Z,3.40
2018-05-07T08:51:47.707Z,2.90
2018-05-07T08:53:23.384Z,2.80
2018-05-07T08:54:58.475Z,2.63
2018-05-07T08:56:33.635Z,3.23
2018-05-07T08:58:08.748Z,3.07
2018-05-07T08:59:43.948Z,2.97
2018-05-07T09:01:19.038Z,2.73
2018-05-07T09:02:54.167Z,3.20
2018-05-07T09:04:29.328Z,3.03
2018-05-07T09:06:05.292Z,2.87
2018-05-07T09:07:40.383Z,2.00
2018-05-07T09:09:15.525Z,2.37
2018-05-07T09:10:50.659Z,2.40
2018-05-07T09:12:25.762Z,2.30
2018-05-07T09:14:00.896Z,2.40
2018-05-07T09:15:36.046Z,2.43
2018-05-07T09:17:11.171Z,2.50
2018-05-07T09:18:46.254Z,2.70
2018-05-07T09:20:21.546Z,2.60
2018-05-07T09:22:02.511Z,2.07
2018-05-07T09:23:37.630Z,2.50
2018-05-07T09:25:12.765Z,2.30
2018-05-07T09:26:47.864Z,2.83
2018-05-07T09:28:22.967Z,2.37
2018-05-07T09:29:58.050Z,2.20
2018-05-07T09:31:36.682Z,2.30
2018-05-07T09:33:11.706Z,2.37
2018-05-07T09:34:46.779Z,2.30
2018-05-07T09:36:21.946Z,2.50
2018-05-07T09:38:08.893Z,2.00
2018-05-07T09:39:44.004Z,1.90
2018-05-07T09:41:19.132Z,1.70
2018-05-07T09:42:54.329Z,1.90
2018-05-07T09:44:29.416Z,2.23
2018-05-07T09:46:04.546Z,1.87
2018-05-07T09:47:39.638Z,1.93
2018-05-07T09:49:15.036Z,2.47
2018-05-07T09:50:50.142Z,1.93
2018-05-07T09:52:25.250Z,2.60
2018-05-07T09:54:00.472Z,2.53
2018-05-07T09:55:35.583Z,2.23
2018-05-07T09:57:10.679Z,2.50
2018-05-07T09:58:57.446Z,2.40
2018-05-07T10:00:37.480Z,2.37
2018-05-07T10:02:13.123Z,2.50
2018-05-07T10:04:08.012Z,2.30
2018-05-07T10:05:43.136Z,2.70
2018-05-07T10:07:18.312Z,2.80
2018-05-07T10:08:53.457Z,2.63
2018-05-07T10:10:28.618Z,2.20
2018-05-07T10:12:03.715Z,2.50
2018-05-07T10:13:40.351Z,2.53
2018-05-07T10:15:16.321Z,2.80
2018-05-07T10:16:52.254Z,2.60
2018-05-07T10:18:28.133Z,2.50
2018-05-07T10:20:04.039Z,3.00
2018-05-07T10:21:39.899Z,2.60
2018-05-07T10:23:16.031Z,2.63
2018-05-07T10:24:51.154Z,2.33
2018-05-07T10:26:27.152Z,2.60
2018-05-07T10:28:02.339Z,2.53
2018-05-07T10:29:38.237Z,3.23
2018-05-07T10:31:13.331Z,2.77
2018-05-07T10:32:48.496Z,2.70
2018-05-07T10:34:23.725Z,2.53
2018-05-07T10:35:58.897Z,2.90
2018-05-07T10:37:34.876Z,2.00
2018-05-07T10:39:10.212Z,2.20
2018-05-07T10:40:45.332Z,2.50
2018-05-07T10:42:21.178Z,2.13
2018-05-07T10:43:56.326Z,2.20
2018-05-07T10:45:32.278Z,1.90
2018-05-07T10:47:07.409Z,1.93
2018-05-07T10:48:42.550Z,2.30
2018-05-07T10:50:17.762Z,1.90
2018-05-07T10:51:52.859Z,1.97
2018-05-07T10:53:28.040Z,2.20
2018-05-07T10:55:03.233Z,2.00
2018-05-07T10:56:38.384Z,1.90
2018-05-07T10:58:13.538Z,2.10
2018-05-07T10:59:48.870Z,2.27
2018-05-07T11:01:23.960Z,2.10
2018-05-07T11:03:00.766Z,2.10
2018-05-07T11:04:35.878Z,2.60
2018-05-07T11:06:11.099Z,2.03
2018-05-07T11:07:46.240Z,2.13
2018-05-07T11:09:21.371Z,2.00
2018-05-07T11:10:57.279Z,2.40
2018-05-07T11:12:32.412Z,2.10
2018-05-07T11:14:11.411Z,2.50
2018-05-07T11:15:46.533Z,2.00
2018-05-07T11:17:21.664Z,2.00
2018-05-07T11:18:57.593Z,2.33
2018-05-07T11:20:32.673Z,2.30
2018-05-07T11:22:08.589Z,2.20
2018-05-07T11:23:48.375Z,2.97
2018-05-07T11:25:24.003Z,2.13
2018-05-07T11:26:59.111Z,2.53
2018-05-07T11:28:34.220Z,2.77
2018-05-07T11:30:09.383Z,2.00
2018-05-07T11:31:45.571Z,2.13
2018-05-07T11:33:21.497Z,2.57
2018-05-07T11:35:03.168Z,2.20
2018-05-07T11:36:38.319Z,2.40
2018-05-07T11:38:14.234Z,2.23
2018-05-07T11:39:49.423Z,2.60
2018-05-07T11:41:24.588Z,2.23
2018-05-07T11:43:00.677Z,2.17
2018-05-07T11:44:35.873Z,2.67
2018-05-07T12:04:28.470Z,2.00
2018-05-07T12:06:03.591Z,2.40
2018-05-07T12:07:52.265Z,1.90
2018-05-07T13:49:31.905Z,1.47
2018-05-07T13:51:09.050Z,1.63
2018-05-07T13:52:47.917Z,1.60
2018-05-07T13:54:25.207Z,1.80
2018-05-07T13:56:15.418Z,1.67
2018-05-07T13:57:51.752Z,1.53
2018-05-07T13:59:30.737Z,1.90
2018-05-07T14:01:07.467Z,1.80
2018-05-07T14:02:55.046Z,1.87
2018-05-07T14:04:36.003Z,1.70
2018-05-07T14:06:12.200Z,1.63
2018-05-07T14:07:58.790Z,1.93
2018-05-07T14:09:57.984Z,1.60
2018-05-07T14:11:34.884Z,1.60
2018-05-07T14:13:11.994Z,1.67
2018-05-07T14:14:48.888Z,1.67
2018-05-07T14:16:29.144Z,1.70
2018-05-07T14:18:10.893Z,1.87
2018-05-07T14:19:48.753Z,1.83
2018-05-07T14:21:24.426Z,1.30
2018-05-07T14:22:59.945Z,1.50
2018-05-07T14:24:36.552Z,2.00
2018-05-07T14:26:11.675Z,2.00
2018-05-07T14:27:47.072Z,1.73
2018-05-07T14:29:22.275Z,1.67
2018-05-07T14:30:57.345Z,1.90
2018-05-07T14:32:33.169Z,1.80
2018-05-07T14:34:09.058Z,2.10
2018-05-07T14:35:44.460Z,2.00
2018-05-07T14:37:21.759Z,1.50
2018-05-07T14:38:57.821Z,1.73
2018-05-07T14:40:35.129Z,1.70
2018-05-07T14:42:10.288Z,1.73
2018-05-07T14:43:45.451Z,1.90
2018-05-07T14:45:21.319Z,1.60
2018-05-07T14:46:56.911Z,1.70
2018-05-07T14:48:32.916Z,1.80
2018-05-07T14:50:08.089Z,1.63
2018-05-07T14:51:44.131Z,1.90
2018-05-07T14:53:19.284Z,2.00
2018-05-07T14:54:54.350Z,1.50
2018-05-07T14:56:31.193Z,1.70
2018-05-07T14:58:07.096Z,1.80
2018-05-07T14:59:42.264Z,1.87
2018-05-07T15:01:18.278Z,1.73
2018-05-07T15:02:54.749Z,1.60
2018-05-07T15:04:32.405Z,1.93
2018-05-07T15:06:07.636Z,1.90
2018-05-07T15:07:43.676Z,2.07
2018-05-07T15:09:21.450Z,1.87
2018-05-07T15:10:57.194Z,1.80
2018-05-07T15:12:33.287Z,1.77
2018-05-07T15:14:23.633Z,1.70
2018-05-07T15:16:00.758Z,2.13
2018-05-07T15:17:36.948Z,2.00
2018-05-07T15:19:13.218Z,1.50
2018-05-07T15:20:58.526Z,1.77
2018-05-07T15:22:33.844Z,1.57
2018-05-07T15:24:09.474Z,1.63
2018-05-07T15:25:44.804Z,1.90
2018-05-07T15:27:20.236Z,1.80
2018-05-07T15:28:57.364Z,1.77
2018-05-07T15:30:33.290Z,1.70
2018-05-07T15:32:11.513Z,1.60
2018-05-07T15:33:50.596Z,1.63
2018-05-07T15:35:26.720Z,1.33
2018-05-07T15:37:05.286Z,1.70
2018-05-07T15:38:40.649Z,1.67
2018-05-07T15:40:16.301Z,1.90
2018-05-07T15:41:51.389Z,1.73
2018-05-07T15:43:27.109Z,2.00
2018-05-07T15:45:03.283Z,1.87
2018-05-07T15:46:45.560Z,1.63
2018-05-07T15:48:20.777Z,1.67
2018-05-07T15:49:56.278Z,1.60
2018-05-07T15:51:32.799Z,1.37
2018-05-07T15:53:07.991Z,1.70
2018-05-07T15:54:44.530Z,1.53
2018-05-07T15:56:20.631Z,1.40
2018-05-07T15:57:55.778Z,1.60
2018-05-07T15:59:31.547Z,1.50
2018-05-07T16:01:07.211Z,1.50
2018-05-07T16:02:42.514Z,1.30
2018-05-07T16:04:17.777Z,1.97
2018-05-07T16:05:52.964Z,1.40
2018-05-07T16:07:29.978Z,1.53
2018-05-07T16:09:07.345Z,1.40
2018-05-07T16:10:45.840Z,1.40
2018-05-07T16:12:21.610Z,1.30
2018-05-07T16:13:57.655Z,1.60
2018-05-07T16:15:39.320Z,1.40
2018-05-07T16:17:20.178Z,1.30
2018-05-07T16:18:55.509Z,1.40
2018-05-07T16:20:30.629Z,1.50
2018-05-07T16:22:05.812Z,1.23
2018-05-07T16:23:40.871Z,1.70
2018-05-07T16:25:15.991Z,1.10
2018-05-07T16:26:51.141Z,1.30
2018-05-07T16:28:27.533Z,1.27
2018-05-07T16:30:03.004Z,1.23
2018-05-07T16:31:38.116Z,1.33
2018-05-07T16:33:13.238Z,1.17
2018-05-07T16:34:48.351Z,1.40
2018-05-07T16:36:24.215Z,1.20
2018-05-07T16:37:59.343Z,1.30
2018-05-07T16:39:35.253Z,1.77
2018-05-07T16:41:10.389Z,1.83
2018-05-07T16:42:46.277Z,1.70
2018-05-07T16:44:21.379Z,1.37
2018-05-07T16:45:56.519Z,1.40
2018-05-07T16:47:31.651Z,1.50
2018-05-07T16:49:06.809Z,1.70
2018-05-07T16:50:42.691Z,1.50
2018-05-07T16:52:17.819Z,1.50
2018-05-07T16:53:52.952Z,1.40
2018-05-07T16:55:28.704Z,1.70
2018-05-07T16:57:04.119Z,1.63
2018-05-07T16:58:39.361Z,1.30
2018-05-07T17:00:14.621Z,1.50
2018-05-07T17:01:51.344Z,1.60
2018-05-07T17:03:32.036Z,1.40
2018-05-07T17:05:12.372Z,1.30
2018-05-07T17:06:47.427Z,1.63
2018-05-07T17:08:23.416Z,1.50
2018-05-07T17:09:58.491Z,1.80
2018-05-07T17:11:33.556Z,1.77
2018-05-07T17:13:09.403Z,1.43
2018-05-07T17:14:44.534Z,1.60
2018-05-07T17:16:20.611Z,1.63
2018-05-07T17:17:56.420Z,1.70
2018-05-07T17:19:31.596Z,1.80
2018-05-07T17:21:07.825Z,1.40
2018-05-07T17:22:42.929Z,1.60
2018-05-07T17:24:18.124Z,1.57
2018-05-07T17:25:53.279Z,1.60
2018-05-07T17:27:28.379Z,1.67
2018-05-07T17:29:03.586Z,1.50
2018-05-07T17:30:38.827Z,1.50
2018-05-07T17:32:15.899Z,1.80
2018-05-07T17:33:53.207Z,1.60
2018-05-07T17:35:28.273Z,1.57
2018-05-07T17:37:03.460Z,1.70
2018-05-07T17:38:39.941Z,1.80
2018-05-07T17:40:15.848Z,1.73
2018-05-07T17:41:51.037Z,1.60
2018-05-07T17:43:43.516Z,1.50
2018-05-07T17:45:40.891Z,1.60
2018-05-07T17:47:34.677Z,1.80
2018-05-07T17:49:11.437Z,1.53
2018-05-07T17:50:50.957Z,1.73
2018-05-07T17:52:29.860Z,1.40
2018-05-07T17:54:05.528Z,1.70
2018-05-07T17:55:41.317Z,1.50
2018-05-07T17:57:17.347Z,1.30
2018-05-07T17:58:53.214Z,1.80
2018-05-07T18:00:28.846Z,1.70
2018-05-07T18:02:03.939Z,1.50
2018-05-07T18:03:39.790Z,1.70
2018-05-07T18:05:15.009Z,1.70
2018-05-07T18:06:53.099Z,1.40
2018-05-07T18:08:28.216Z,1.70
2018-05-07T18:10:04.131Z,1.73
2018-05-07T18:11:39.872Z,1.70
2018-05-07T18:13:20.302Z,1.70
2018-05-07T18:15:00.619Z,1.83
2018-05-07T18:29:00.009Z,1.97
2018-05-07T18:30:38.763Z,1.70
2018-05-07T18:32:15.715Z,1.73
2018-05-07T18:33:53.923Z,1.80
2018-05-07T18:35:31.825Z,2.00
2018-05-07T18:37:12.529Z,1.80
2018-05-07T18:38:58.162Z,1.93
2018-05-07T18:40:36.258Z,1.77
2018-05-07T18:42:13.958Z,1.70
2018-05-07T18:43:53.404Z,1.60
2018-05-07T18:45:33.310Z,1.73
2018-05-07T18:47:13.923Z,1.60
2018-05-07T18:48:52.129Z,1.50
2018-05-07T18:50:31.049Z,1.70
2018-05-07T18:52:08.654Z,1.40
2018-05-07T18:53:49.356Z,1.50
2018-05-07T18:55:27.837Z,1.90
2018-05-07T18:57:04.489Z,1.60
2018-05-07T18:58:42.534Z,1.80
2018-05-07T19:00:29.424Z,1.70
2018-05-07T19:02:08.644Z,1.80
2018-05-07T19:03:46.009Z,1.60
2018-05-07T19:05:25.654Z,1.60
2018-05-07T19:07:14.343Z,1.80
2018-05-07T19:08:50.805Z,1.97
2018-05-07T19:10:29.476Z,1.30
2018-05-07T19:12:06.384Z,1.47
2018-05-07T19:13:45.990Z,1.67
2018-05-07T19:15:24.512Z,1.80
2018-05-07T19:17:02.833Z,1.90
2018-05-07T19:18:39.798Z,1.63
2018-05-07T19:20:18.029Z,1.60
2018-05-07T19:22:15.310Z,1.70
2018-05-07T19:23:52.010Z,1.60
2018-05-07T19:25:28.002Z,1.50
2018-05-07T19:27:06.702Z,1.60
2018-05-07T19:28:43.583Z,1.40
2018-05-07T19:30:20.585Z,2.10
2018-05-07T19:31:59.218Z,1.80
2018-05-07T19:33:35.712Z,1.80
2018-05-07T19:35:12.168Z,1.90
2018-05-07T19:36:48.791Z,2.13
2018-05-07T19:38:30.784Z,1.83
2018-05-07T19:40:07.218Z,2.00
2018-05-07T19:41:43.135Z,2.10
2018-05-07T19:43:18.253Z,1.70
2018-05-07T19:44:53.938Z,1.93
2018-05-07T19:46:44.170Z,1.73
2018-05-07T19:48:24.491Z,1.70
2018-05-07T19:50:04.649Z,1.90
2018-05-07T19:51:45.007Z,1.80
2018-05-07T19:53:24.350Z,1.67
2018-05-07T19:54:59.456Z,1.97
2018-05-07T19:56:35.421Z,1.70
2018-05-07T19:58:10.548Z,1.87
2018-05-07T19:59:45.786Z,1.80
2018-05-07T20:01:21.807Z,2.20
2018-05-07T20:02:57.119Z,2.00
2018-05-07T20:04:32.238Z,1.80
2018-05-07T20:06:08.075Z,2.00
2018-05-07T20:07:43.206Z,2.00
2018-05-07T20:09:18.312Z,1.70
2018-05-07T20:10:54.190Z,2.10
2018-05-07T20:12:29.502Z,1.80
2018-05-07T20:14:04.783Z,1.53
2018-05-07T20:15:40.677Z,2.00
2018-05-07T20:17:15.772Z,1.90
2018-05-07T20:18:53.029Z,1.83
2018-05-07T20:20:28.170Z,1.90
2018-05-07T20:22:03.292Z,1.80
2018-05-07T20:23:57.237Z,1.80
2018-05-07T20:25:32.367Z,2.10
2018-05-07T20:27:08.319Z,2.03
2018-05-07T20:28:45.903Z,2.00
2018-05-07T20:30:21.049Z,2.10
2018-05-07T20:31:56.170Z,2.20
2018-05-07T20:33:31.267Z,1.57
2018-05-07T20:35:06.457Z,2.17
2018-05-07T20:36:41.523Z,1.73
2018-05-07T20:38:16.644Z,2.10
2018-05-07T20:39:51.854Z,2.10
2018-05-07T20:41:34.004Z,2.43
2018-05-07T20:43:09.133Z,2.63
2018-05-07T20:44:44.228Z,2.10
2018-05-07T20:46:20.090Z,2.10
2018-05-07T20:47:55.492Z,2.10
2018-05-07T20:49:30.552Z,2.30
2018-05-07T20:51:05.789Z,2.00
2018-05-07T20:52:40.944Z,2.10
2018-05-07T20:54:16.812Z,2.50
2018-05-07T20:55:52.010Z,2.20
2018-05-07T20:57:27.973Z,2.00
2018-05-07T20:59:04.812Z,2.00
2018-05-07T21:00:40.564Z,1.73
2018-05-07T21:02:15.698Z,2.00
2018-05-07T21:03:52.137Z,1.90
2018-05-07T21:05:27.257Z,2.17
2018-05-07T21:07:02.429Z,2.03
2018-05-07T21:08:38.340Z,1.93
2018-05-07T21:10:13.465Z,2.23
2018-05-07T21:11:48.551Z,2.03
2018-05-07T21:13:24.445Z,2.50
2018-05-07T21:14:59.582Z,2.50
2018-05-07T21:16:34.699Z,2.33
2018-05-07T21:18:10.547Z,2.13
2018-05-07T21:21:59.479Z,2.20
2018-05-07T21:23:34.543Z,2.60
2018-05-07T21:25:09.696Z,2.13
2018-05-07T21:26:44.919Z,2.40
2018-05-07T21:28:20.069Z,2.33
2018-05-07T21:29:56.031Z,2.60
2018-05-07T21:31:31.110Z,2.37
2018-05-07T21:33:07.024Z,2.23
2018-05-07T21:34:42.851Z,2.20
2018-05-07T21:36:17.956Z,2.10
2018-05-07T21:37:53.812Z,2.13
2018-05-07T21:39:28.992Z,2.10
2018-05-07T21:41:04.897Z,3.37
2018-05-07T21:42:41.609Z,3.47
2018-05-07T21:44:17.548Z,3.63
2018-05-07T21:45:53.073Z,3.90
2018-05-07T21:47:58.423Z,3.50
2018-05-07T21:49:34.368Z,3.07
2018-05-07T21:51:09.447Z,3.23
2018-05-07T21:52:44.573Z,2.63
2018-05-07T21:54:20.444Z,3.00
2018-05-07T21:55:55.559Z,2.80
2018-05-07T21:57:30.675Z,2.73
2018-05-07T21:59:06.569Z,2.80
2018-05-07T22:00:42.491Z,2.37
2018-05-07T22:02:22.832Z,2.63
2018-05-07T22:03:57.935Z,2.70
2018-05-07T22:05:33.796Z,2.70
2018-05-07T22:07:09.716Z,2.60
2018-05-07T22:08:46.158Z,2.47
2018-05-07T22:10:21.275Z,2.60
2018-05-07T22:11:57.720Z,2.43
2018-05-07T22:13:32.785Z,2.70
2018-05-07T22:15:07.888Z,2.40
2018-05-07T22:16:45.703Z,2.50
2018-05-07T22:18:21.417Z,2.50
2018-05-07T22:19:57.264Z,2.57
2018-05-07T22:21:32.355Z,2.03
2018-05-07T22:23:09.092Z,2.17
2018-05-07T22:24:44.171Z,2.23
2018-05-07T22:26:19.403Z,2.13
2018-05-07T22:27:55.760Z,2.17
2018-05-07T22:29:31.702Z,2.27
2018-05-07T22:31:06.837Z,2.50
2018-05-07T22:32:41.956Z,2.13
2018-05-07T22:34:17.078Z,2.40
2018-05-07T22:35:52.225Z,1.83
2018-05-07T22:37:27.351Z,2.23
2018-05-07T22:39:03.697Z,2.30
2018-05-07T22:40:39.575Z,2.10
2018-05-07T22:42:14.661Z,2.03
2018-05-07T22:43:50.182Z,1.93
2018-05-07T22:45:26.130Z,2.33
2018-05-07T22:47:01.255Z,2.33
2018-05-07T22:48:36.389Z,2.03
2018-05-07T22:50:12.278Z,2.00
2018-05-07T22:51:47.388Z,2.10
2018-05-07T22:53:22.521Z,1.93
2018-05-07T22:55:08.780Z,1.90
2018-05-07T22:56:43.915Z,2.50
2018-05-07T22:58:19.821Z,2.23
2018-05-07T22:59:55.334Z,2.43
2018-05-07T23:01:30.447Z,2.20
2018-05-07T23:03:06.295Z,2.07
2018-05-07T23:04:42.061Z,2.13
2018-05-07T23:06:17.153Z,2.07
2018-05-07T23:07:52.307Z,2.07
2018-05-07T23:09:28.180Z,2.23
2018-05-07T23:11:03.306Z,2.30
2018-05-07T23:12:38.421Z,2.40
2018-05-07T23:14:13.650Z,2.57
2018-05-07T23:15:49.564Z,2.77
2018-05-07T23:17:25.373Z,2.97
2018-05-07T23:19:00.460Z,2.70
2018-05-07T23:20:50.318Z,3.50
2018-05-07T23:22:25.434Z,3.23
2018-05-07T23:24:00.519Z,3.00
2018-05-07T23:25:36.799Z,3.20
2018-05-07T23:27:12.613Z,3.10
2018-05-07T23:28:48.484Z,3.07
2018-05-07T23:30:23.558Z,2.50
2018-05-07T23:31:58.671Z,3.00
2018-05-07T23:33:33.857Z,3.00
2018-05-07T23:35:08.975Z,2.43
2018-05-07T23:36:44.854Z,2.70